AirNav   Air Wisconsin Up To $57,000 Bonus
 
 1654 users online  

1MA4 Wang Heliport
Lowell, Massachusetts, USA

GOING TO LOWELL?


FAA INFORMATION EFFECTIVE 02 JANUARY 2020

Location

FAA Identifier: 1MA4
Lat/Long: 42-36-33.3300N 071-19-18.2170W
42-36.555500N 071-19.303617W
42.6092583,-71.3217269
(estimated)
Elevation: 104 ft. / 32 m (estimated)
Variation: 16W (1985)
From city: 2 miles N of LOWELL, MA
Time zone: UTC -5 (UTC -4 during Daylight Saving Time)
Zip code: 01851

Heliport Operations

Heliport use: Private use. Permission required prior to landing
Activation date: 07/1985
Control tower: no
ARTCC: BOSTON CENTER
FSS: BRIDGEPORT FLIGHT SERVICE STATION
Attendance: IREG
Wind indicator: yes
Segmented circle: no

Heliport Communications

WX ASOS at BED (8 nm S): 124.6 (781-274-9733)
WX ASOS at LWM (11 nm NE): PHONE 978-687-8017
WX AWOS-3PT at ASH (13 nm NW): 125.1 (603-578-0473)
WX ASOS at BVY (18 nm E): PHONE 978-921-5042
WX ASOS at FIT (20 nm W): 135.175 (978-343-9121)

Nearby radio navigation aids

VOR radial/distance  VOR name  Freq  Var
LWMr247/12.7LAWRENCE VOR/DME112.5015W
MHTr187/15.7MANCHESTER VOR/DME114.4015W
BOSr332/21.1BOSTON VOR/DME112.7016W
GDMr097/32.8GARDNER VOR/DME110.6014W
PSMr233/35.7PEASE VOR/DME116.5016W
CONr178/38.3CONCORD VOR/DME112.9015W

Heliport Services

Runway Information

Helipad H1

Dimensions: 132 x 132 ft. / 40 x 40 m
Surface: concrete
Traffic pattern: leftleft

Heliport Ownership and Management from official FAA records

Ownership: Privately-owned
Owner: WANG LABORATORIES
ONE INDUSTRIAL AVENUE
LOWELL, MA 01851
Phone 508-967-2162
Manager: J. ALBERT E. THERRIAULT
ONE INDUSTRIAL AVENUE
LOWELL, MA 01851
Phone 508-967-2162

Additional Remarks

FOR CD CTC BOSTON APCH AT 603-594-5554.

Instrument Procedures

There are no published instrument procedures at 1MA4.

Some nearby airports with instrument procedures:

KBED - Laurence G Hanscom Field Airport (8 nm S)
KLWM - Lawrence Municipal Airport (11 nm NE)
6B6 - Minute Man Air Field (12 nm SW)
KASH - Boire Field Airport (13 nm NW)
KBVY - Beverly Regional Airport (18 nm E)
KFIT - Fitchburg Municipal Airport (20 nm W)
 
Loc | Ops | Rwys | IFR | FBO | Links
Com | Nav | Svcs | Stats | Notes
Area around 1MA4 (Wang Heliport)
 
Road maps at: MapQuest Bing Google
 
Aerial photo
No photo
 
Sectional chart

 
Airport distance calculator
Flying to Wang Heliport? Find the distance to fly.

From to 1MA4

Sunrise and sunset
Times for 23-Jan-2020
 Local
(UTC-5)
 Zulu
(UTC)
Morning civil twilight06:3811:38
Sunrise07:0912:09
Sunset16:4621:46
Evening civil twilight17:1622:16

Current date and time
Zulu (UTC)  23-Jan-2020 21:57:45
Local (UTC-5)  23-Jan-2020 16:57:45
 
METAR
KBED 
9nm S 
232151Z 00000KT 10SM OVC250 03/M08 A3029 RMK AO2 SLP275 T00331083
KLWM 
11nm NE 
232154Z 21003KT 10SM CLR 04/M08 A3031 RMK AO2 SLP265 T00391083 $
KASH 
13nm NW 
232056Z 00000KT 10SM CLR 04/M06 A3030 RMK AO2 SLP266 T00391061 55008
KBVY 
18nm E 
232153Z 21003KT 10SM CLR 06/M10 A3029 RMK AO2 SLP256 T00561100
KFIT 
19nm W 
232152Z AUTO 00000KT 10SM CLR 02/M09 A3029 RMK AO2 SLP265 T00221089
KBOS 
20nm SE 
232154Z 22006KT 10SM FEW130 OVC230 08/M12 A3031 RMK AO2 SLP262 T00831117
TAF
KBED 
9nm S 
231726Z 2318/2418 24004KT P6SM BKN250 FM240100 VRB03KT P6SM BKN250 FM241400 02005KT P6SM SCT200
KBOS 
20nm SE 
231726Z 2318/2424 23007KT P6SM SCT250 FM240200 26004KT P6SM BKN250 FM240800 29005KT P6SM BKN200 FM241500 02005KT P6SM FEW015 FM242000 06007KT P6SM BKN015
NOTAMs
Click for the latest NOTAMs
NOTAMs are issued by the DoD/FAA and will open in a separate window not controlled by AirNav.

 

 
 

Would you like to see your business listed on this page?

 If your business provides an interesting product or service to pilots, flight crews, aircraft, or users of the Wang Heliport, you should consider listing it here.  To start the listing process, click on the button below
 
Add a business
 

Other Pages about Wang Heliport

Update a link
 
Copyright © AirNav, LLC. All rights reserved. Privacy Policy  Contact